sensor_id;sensor_type;location;lat;lon;timestamp;P1;durP1;ratioP1;P2;durP2;ratioP2
31126;SDS011;17775;57.948;12.514;2023-07-29T00:00:40;6.32;;;3.75;;
31126;SDS011;17775;57.948;12.514;2023-07-29T00:03:07;5.78;;;3.75;;
31126;SDS011;17775;57.948;12.514;2023-07-29T00:05:33;7.15;;;3.75;;
31126;SDS011;17775;57.948;12.514;2023-07-29T00:08:00;5.70;;;3.53;;
31126;SDS011;17775;57.948;12.514;2023-07-29T00:10:27;11.10;;;3.75;;
31126;SDS011;17775;57.948;12.514;2023-07-29T00:12:53;5.00;;;3.45;;
31126;SDS011;17775;57.948;12.514;2023-07-29T00:15:20;8.15;;;3.97;;
31126;SDS011;17775;57.948;12.514;2023-07-29T00:17:46;9.23;;;4.13;;
31126;SDS011;17775;57.948;12.514;2023-07-29T00:20:13;6.60;;;3.58;;
31126;SDS011;17775;57.948;12.514;2023-07-29T00:22:39;4.75;;;3.20;;
31126;SDS011;17775;57.948;12.514;2023-07-29T00:25:06;6.60;;;3.20;;
31126;SDS011;17775;57.948;12.514;2023-07-29T00:27:33;8.45;;;3.63;;
31126;SDS011;17775;57.948;12.514;2023-07-29T00:29:59;4.60;;;3.17;;
31126;SDS011;17775;57.948;12.514;2023-07-29T00:32:29;6.78;;;3.17;;
31126;SDS011;17775;57.948;12.514;2023-07-29T00:34:56;8.07;;;3.30;;
31126;SDS011;17775;57.948;12.514;2023-07-29T00:37:22;6.50;;;3.50;;
31126;SDS011;17775;57.948;12.514;2023-07-29T00:39:48;7.05;;;3.33;;
31126;SDS011;17775;57.948;12.514;2023-07-29T00:42:15;6.22;;;3.45;;
31126;SDS011;17775;57.948;12.514;2023-07-29T00:44:44;6.55;;;3.45;;
31126;SDS011;17775;57.948;12.514;2023-07-29T00:47:11;5.18;;;3.35;;
31126;SDS011;17775;57.948;12.514;2023-07-29T00:49:39;5.45;;;3.53;;
31126;SDS011;17775;57.948;12.514;2023-07-29T00:52:07;6.90;;;3.83;;
31126;SDS011;17775;57.948;12.514;2023-07-29T00:54:33;8.55;;;3.58;;
31126;SDS011;17775;57.948;12.514;2023-07-29T00:57:00;5.70;;;3.45;;
31126;SDS011;17775;57.948;12.514;2023-07-29T00:59:26;6.90;;;3.55;;
31126;SDS011;17775;57.948;12.514;2023-07-29T01:01:55;5.25;;;3.05;;
31126;SDS011;17775;57.948;12.514;2023-07-29T01:04:21;5.47;;;3.25;;
31126;SDS011;17775;57.948;12.514;2023-07-29T01:07:07;6.07;;;3.28;;
31126;SDS011;17775;57.948;12.514;2023-07-29T01:09:46;5.95;;;3.53;;
31126;SDS011;17775;57.948;12.514;2023-07-29T01:14:55;5.45;;;3.42;;
31126;SDS011;17775;57.948;12.514;2023-07-29T01:17:29;5.72;;;3.13;;
31126;SDS011;17775;57.948;12.514;2023-07-29T01:20:07;6.88;;;3.72;;
31126;SDS011;17775;57.948;12.514;2023-07-29T01:22:35;4.70;;;3.20;;
31126;SDS011;17775;57.948;12.514;2023-07-29T01:25:02;5.00;;;3.40;;
31126;SDS011;17775;57.948;12.514;2023-07-29T01:27:29;5.10;;;2.97;;
31126;SDS011;17775;57.948;12.514;2023-07-29T01:29:55;5.97;;;3.40;;
31126;SDS011;17775;57.948;12.514;2023-07-29T01:35:24;5.60;;;3.38;;
31126;SDS011;17775;57.948;12.514;2023-07-29T01:37:55;5.03;;;3.40;;
31126;SDS011;17775;57.948;12.514;2023-07-29T01:40:22;5.85;;;3.13;;
31126;SDS011;17775;57.948;12.514;2023-07-29T01:42:52;5.72;;;3.47;;
31126;SDS011;17775;57.948;12.514;2023-07-29T01:45:21;5.93;;;3.67;;
31126;SDS011;17775;57.948;12.514;2023-07-29T01:47:49;5.63;;;3.85;;
31126;SDS011;17775;57.948;12.514;2023-07-29T01:50:15;6.10;;;3.70;;
31126;SDS011;17775;57.948;12.514;2023-07-29T01:52:42;7.55;;;3.83;;
31126;SDS011;17775;57.948;12.514;2023-07-29T01:55:08;6.10;;;3.33;;
31126;SDS011;17775;57.948;12.514;2023-07-29T01:57:35;4.85;;;3.20;;
31126;SDS011;17775;57.948;12.514;2023-07-29T02:00:01;6.60;;;3.95;;
31126;SDS011;17775;57.948;12.514;2023-07-29T02:02:31;5.68;;;3.40;;
31126;SDS011;17775;57.948;12.514;2023-07-29T02:04:57;6.78;;;3.35;;
31126;SDS011;17775;57.948;12.514;2023-07-29T02:07:24;4.72;;;2.95;;
31126;SDS011;17775;57.948;12.514;2023-07-29T02:09:52;6.38;;;3.28;;
31126;SDS011;17775;57.948;12.514;2023-07-29T02:12:19;8.93;;;3.45;;
31126;SDS011;17775;57.948;12.514;2023-07-29T02:14:46;5.57;;;3.42;;
31126;SDS011;17775;57.948;12.514;2023-07-29T02:17:12;5.93;;;3.17;;
31126;SDS011;17775;57.948;12.514;2023-07-29T02:19:39;4.78;;;3.65;;
31126;SDS011;17775;57.948;12.514;2023-07-29T02:22:05;7.53;;;3.53;;
31126;SDS011;17775;57.948;12.514;2023-07-29T02:24:32;6.13;;;2.92;;
31126;SDS011;17775;57.948;12.514;2023-07-29T02:26:59;5.97;;;3.13;;
31126;SDS011;17775;57.948;12.514;2023-07-29T02:29:25;6.22;;;3.03;;
31126;SDS011;17775;57.948;12.514;2023-07-29T02:31:52;8.23;;;3.58;;
31126;SDS011;17775;57.948;12.514;2023-07-29T02:34:18;4.13;;;3.50;;
31126;SDS011;17775;57.948;12.514;2023-07-29T02:36:45;5.78;;;2.97;;
31126;SDS011;17775;57.948;12.514;2023-07-29T02:39:11;5.25;;;3.15;;
31126;SDS011;17775;57.948;12.514;2023-07-29T02:41:40;4.97;;;3.35;;
31126;SDS011;17775;57.948;12.514;2023-07-29T02:44:07;5.00;;;3.05;;
31126;SDS011;17775;57.948;12.514;2023-07-29T02:46:33;6.15;;;3.30;;
31126;SDS011;17775;57.948;12.514;2023-07-29T02:49:01;5.55;;;3.33;;
31126;SDS011;17775;57.948;12.514;2023-07-29T02:51:29;5.57;;;3.35;;
31126;SDS011;17775;57.948;12.514;2023-07-29T02:53:55;4.90;;;2.83;;
31126;SDS011;17775;57.948;12.514;2023-07-29T02:56:22;7.65;;;3.17;;
31126;SDS011;17775;57.948;12.514;2023-07-29T02:58:54;5.22;;;3.00;;
31126;SDS011;17775;57.948;12.514;2023-07-29T03:01:20;5.97;;;3.28;;
31126;SDS011;17775;57.948;12.514;2023-07-29T03:03:47;7.10;;;3.45;;
31126;SDS011;17775;57.948;12.514;2023-07-29T03:06:14;5.15;;;2.95;;
31126;SDS011;17775;57.948;12.514;2023-07-29T03:08:40;4.18;;;2.85;;
31126;SDS011;17775;57.948;12.514;2023-07-29T03:11:11;6.15;;;3.08;;
31126;SDS011;17775;57.948;12.514;2023-07-29T03:16:08;4.65;;;2.88;;
31126;SDS011;17775;57.948;12.514;2023-07-29T03:18:35;6.47;;;3.55;;
31126;SDS011;17775;57.948;12.514;2023-07-29T03:21:01;5.72;;;3.30;;
31126;SDS011;17775;57.948;12.514;2023-07-29T03:23:28;5.45;;;3.70;;
31126;SDS011;17775;57.948;12.514;2023-07-29T03:25:55;6.70;;;3.78;;
31126;SDS011;17775;57.948;12.514;2023-07-29T03:28:25;4.43;;;3.20;;
31126;SDS011;17775;57.948;12.514;2023-07-29T03:30:51;4.82;;;3.10;;
31126;SDS011;17775;57.948;12.514;2023-07-29T03:33:18;4.75;;;3.38;;
31126;SDS011;17775;57.948;12.514;2023-07-29T03:35:45;7.38;;;3.13;;
31126;SDS011;17775;57.948;12.514;2023-07-29T03:38:11;4.47;;;3.10;;
31126;SDS011;17775;57.948;12.514;2023-07-29T03:40:38;4.85;;;3.20;;
31126;SDS011;17775;57.948;12.514;2023-07-29T03:43:05;4.95;;;3.10;;
31126;SDS011;17775;57.948;12.514;2023-07-29T03:45:31;6.30;;;3.00;;
31126;SDS011;17775;57.948;12.514;2023-07-29T03:48:01;4.82;;;3.20;;
31126;SDS011;17775;57.948;12.514;2023-07-29T03:50:28;5.50;;;3.30;;
31126;SDS011;17775;57.948;12.514;2023-07-29T03:52:55;6.28;;;3.03;;
31126;SDS011;17775;57.948;12.514;2023-07-29T03:55:22;6.05;;;3.17;;
31126;SDS011;17775;57.948;12.514;2023-07-29T03:57:49;4.63;;;2.78;;
31126;SDS011;17775;57.948;12.514;2023-07-29T04:00:15;7.32;;;3.30;;
31126;SDS011;17775;57.948;12.514;2023-07-29T04:02:42;4.70;;;3.58;;
31126;SDS011;17775;57.948;12.514;2023-07-29T04:05:09;5.70;;;3.35;;
31126;SDS011;17775;57.948;12.514;2023-07-29T04:07:35;5.90;;;3.00;;
31126;SDS011;17775;57.948;12.514;2023-07-29T04:10:02;4.28;;;2.75;;
31126;SDS011;17775;57.948;12.514;2023-07-29T04:12:29;5.13;;;3.05;;
31126;SDS011;17775;57.948;12.514;2023-07-29T04:14:55;6.45;;;3.22;;
31126;SDS011;17775;57.948;12.514;2023-07-29T04:17:22;6.55;;;2.90;;
31126;SDS011;17775;57.948;12.514;2023-07-29T04:19:49;5.78;;;2.90;;
31126;SDS011;17775;57.948;12.514;2023-07-29T04:22:15;5.25;;;3.55;;
31126;SDS011;17775;57.948;12.514;2023-07-29T04:24:42;5.85;;;3.00;;
31126;SDS011;17775;57.948;12.514;2023-07-29T04:27:08;5.25;;;3.38;;
31126;SDS011;17775;57.948;12.514;2023-07-29T04:29:35;4.60;;;3.40;;
31126;SDS011;17775;57.948;12.514;2023-07-29T04:32:02;5.60;;;3.08;;
31126;SDS011;17775;57.948;12.514;2023-07-29T04:34:30;5.20;;;2.88;;
31126;SDS011;17775;57.948;12.514;2023-07-29T04:36:57;4.47;;;2.90;;
31126;SDS011;17775;57.948;12.514;2023-07-29T04:39:24;6.55;;;3.22;;
31126;SDS011;17775;57.948;12.514;2023-07-29T04:41:50;4.78;;;3.20;;
31126;SDS011;17775;57.948;12.514;2023-07-29T04:44:17;3.80;;;2.90;;
31126;SDS011;17775;57.948;12.514;2023-07-29T04:46:44;4.32;;;3.22;;
31126;SDS011;17775;57.948;12.514;2023-07-29T04:49:10;7.20;;;3.60;;
31126;SDS011;17775;57.948;12.514;2023-07-29T04:51:37;5.40;;;3.60;;
31126;SDS011;17775;57.948;12.514;2023-07-29T04:54:03;4.72;;;3.00;;
31126;SDS011;17775;57.948;12.514;2023-07-29T04:56:30;6.38;;;3.47;;
31126;SDS011;17775;57.948;12.514;2023-07-29T04:58:57;6.05;;;3.20;;
31126;SDS011;17775;57.948;12.514;2023-07-29T05:01:23;7.38;;;3.50;;
31126;SDS011;17775;57.948;12.514;2023-07-29T05:03:51;5.68;;;3.30;;
31126;SDS011;17775;57.948;12.514;2023-07-29T05:06:18;6.78;;;3.30;;
31126;SDS011;17775;57.948;12.514;2023-07-29T05:08:44;4.95;;;3.45;;
31126;SDS011;17775;57.948;12.514;2023-07-29T05:11:11;6.32;;;3.55;;
31126;SDS011;17775;57.948;12.514;2023-07-29T05:13:37;6.35;;;3.72;;
31126;SDS011;17775;57.948;12.514;2023-07-29T05:16:04;6.82;;;3.30;;
31126;SDS011;17775;57.948;12.514;2023-07-29T05:18:31;5.03;;;3.10;;
31126;SDS011;17775;57.948;12.514;2023-07-29T05:20:57;5.40;;;3.30;;
31126;SDS011;17775;57.948;12.514;2023-07-29T05:23:26;4.57;;;3.28;;
31126;SDS011;17775;57.948;12.514;2023-07-29T05:25:52;5.72;;;3.80;;
31126;SDS011;17775;57.948;12.514;2023-07-29T05:28:19;4.65;;;3.00;;
31126;SDS011;17775;57.948;12.514;2023-07-29T05:30:45;4.88;;;3.42;;
31126;SDS011;17775;57.948;12.514;2023-07-29T05:33:12;5.50;;;2.60;;
31126;SDS011;17775;57.948;12.514;2023-07-29T05:35:39;5.10;;;3.40;;
31126;SDS011;17775;57.948;12.514;2023-07-29T05:38:05;5.57;;;2.78;;
31126;SDS011;17775;57.948;12.514;2023-07-29T05:40:34;4.05;;;2.75;;
31126;SDS011;17775;57.948;12.514;2023-07-29T05:43:01;4.88;;;3.05;;
31126;SDS011;17775;57.948;12.514;2023-07-29T05:45:29;6.38;;;3.58;;
31126;SDS011;17775;57.948;12.514;2023-07-29T05:47:57;4.25;;;2.97;;
31126;SDS011;17775;57.948;12.514;2023-07-29T05:50:23;4.95;;;3.28;;
31126;SDS011;17775;57.948;12.514;2023-07-29T05:52:50;3.75;;;2.65;;
31126;SDS011;17775;57.948;12.514;2023-07-29T05:55:16;6.50;;;3.08;;
31126;SDS011;17775;57.948;12.514;2023-07-29T05:57:43;4.82;;;2.85;;
31126;SDS011;17775;57.948;12.514;2023-07-29T06:00:10;4.20;;;2.90;;
31126;SDS011;17775;57.948;12.514;2023-07-29T06:02:37;5.35;;;2.35;;
31126;SDS011;17775;57.948;12.514;2023-07-29T06:05:03;4.18;;;2.47;;
31126;SDS011;17775;57.948;12.514;2023-07-29T06:07:30;3.80;;;2.78;;
31126;SDS011;17775;57.948;12.514;2023-07-29T06:09:58;4.97;;;2.92;;
31126;SDS011;17775;57.948;12.514;2023-07-29T06:12:24;4.88;;;2.80;;
31126;SDS011;17775;57.948;12.514;2023-07-29T06:14:51;5.30;;;2.67;;
31126;SDS011;17775;57.948;12.514;2023-07-29T06:17:17;4.03;;;2.67;;
31126;SDS011;17775;57.948;12.514;2023-07-29T06:19:44;4.45;;;2.50;;
31126;SDS011;17775;57.948;12.514;2023-07-29T06:22:10;5.15;;;2.50;;
31126;SDS011;17775;57.948;12.514;2023-07-29T06:24:37;3.17;;;2.38;;
31126;SDS011;17775;57.948;12.514;2023-07-29T06:27:04;3.80;;;2.45;;
31126;SDS011;17775;57.948;12.514;2023-07-29T06:29:30;4.88;;;2.70;;
31126;SDS011;17775;57.948;12.514;2023-07-29T06:31:58;4.13;;;2.70;;
31126;SDS011;17775;57.948;12.514;2023-07-29T06:34:24;5.30;;;2.10;;
31126;SDS011;17775;57.948;12.514;2023-07-29T06:36:55;4.25;;;2.60;;
31126;SDS011;17775;57.948;12.514;2023-07-29T06:39:21;5.50;;;2.58;;
31126;SDS011;17775;57.948;12.514;2023-07-29T06:41:48;4.15;;;2.28;;
31126;SDS011;17775;57.948;12.514;2023-07-29T06:44:14;3.55;;;2.05;;
31126;SDS011;17775;57.948;12.514;2023-07-29T06:46:40;4.22;;;2.20;;
31126;SDS011;17775;57.948;12.514;2023-07-29T06:49:07;3.60;;;2.00;;
31126;SDS011;17775;57.948;12.514;2023-07-29T06:51:34;4.00;;;2.22;;
31126;SDS011;17775;57.948;12.514;2023-07-29T06:54:01;3.00;;;1.83;;
31126;SDS011;17775;57.948;12.514;2023-07-29T06:56:30;3.60;;;2.35;;
31126;SDS011;17775;57.948;12.514;2023-07-29T06:58:57;3.45;;;2.15;;
31126;SDS011;17775;57.948;12.514;2023-07-29T07:01:23;5.78;;;2.28;;
31126;SDS011;17775;57.948;12.514;2023-07-29T07:03:50;5.00;;;1.98;;
31126;SDS011;17775;57.948;12.514;2023-07-29T07:06:16;3.22;;;1.73;;
31126;SDS011;17775;57.948;12.514;2023-07-29T07:08:43;4.30;;;2.00;;
31126;SDS011;17775;57.948;12.514;2023-07-29T07:11:10;3.85;;;2.20;;
31126;SDS011;17775;57.948;12.514;2023-07-29T07:13:36;3.63;;;1.80;;
31126;SDS011;17775;57.948;12.514;2023-07-29T07:16:03;2.80;;;1.77;;
31126;SDS011;17775;57.948;12.514;2023-07-29T07:18:30;2.40;;;1.60;;
31126;SDS011;17775;57.948;12.514;2023-07-29T07:20:56;3.00;;;1.58;;
31126;SDS011;17775;57.948;12.514;2023-07-29T07:23:23;3.20;;;1.45;;
31126;SDS011;17775;57.948;12.514;2023-07-29T07:25:49;3.50;;;2.03;;
31126;SDS011;17775;57.948;12.514;2023-07-29T07:28:16;3.17;;;1.88;;
31126;SDS011;17775;57.948;12.514;2023-07-29T07:30:42;3.42;;;1.95;;
31126;SDS011;17775;57.948;12.514;2023-07-29T07:33:09;5.13;;;2.10;;
31126;SDS011;17775;57.948;12.514;2023-07-29T07:35:36;3.92;;;1.73;;
31126;SDS011;17775;57.948;12.514;2023-07-29T07:38:02;3.08;;;2.03;;
31126;SDS011;17775;57.948;12.514;2023-07-29T07:40:33;5.55;;;2.47;;
31126;SDS011;17775;57.948;12.514;2023-07-29T07:43:00;3.08;;;1.75;;
31126;SDS011;17775;57.948;12.514;2023-07-29T07:45:26;3.15;;;1.60;;
31126;SDS011;17775;57.948;12.514;2023-07-29T07:47:53;2.83;;;1.42;;
31126;SDS011;17775;57.948;12.514;2023-07-29T07:50:22;2.97;;;1.30;;
31126;SDS011;17775;57.948;12.514;2023-07-29T07:52:50;3.03;;;1.90;;
31126;SDS011;17775;57.948;12.514;2023-07-29T07:55:17;2.40;;;1.48;;
31126;SDS011;17775;57.948;12.514;2023-07-29T07:57:44;2.03;;;1.38;;
31126;SDS011;17775;57.948;12.514;2023-07-29T08:00:10;2.47;;;1.27;;
31126;SDS011;17775;57.948;12.514;2023-07-29T08:02:37;2.30;;;1.30;;
31126;SDS011;17775;57.948;12.514;2023-07-29T08:05:04;2.20;;;1.52;;
31126;SDS011;17775;57.948;12.514;2023-07-29T08:07:33;2.70;;;1.77;;
31126;SDS011;17775;57.948;12.514;2023-07-29T08:09:59;2.60;;;1.60;;
31126;SDS011;17775;57.948;12.514;2023-07-29T08:12:26;4.78;;;1.60;;
31126;SDS011;17775;57.948;12.514;2023-07-29T08:14:52;3.28;;;1.27;;
31126;SDS011;17775;57.948;12.514;2023-07-29T08:17:19;3.13;;;1.33;;
31126;SDS011;17775;57.948;12.514;2023-07-29T08:19:45;2.53;;;1.65;;
31126;SDS011;17775;57.948;12.514;2023-07-29T08:22:12;2.25;;;1.40;;
31126;SDS011;17775;57.948;12.514;2023-07-29T08:24:38;2.42;;;1.40;;
31126;SDS011;17775;57.948;12.514;2023-07-29T08:27:05;3.58;;;1.75;;
31126;SDS011;17775;57.948;12.514;2023-07-29T08:29:34;2.30;;;1.20;;
31126;SDS011;17775;57.948;12.514;2023-07-29T08:32:00;2.08;;;1.27;;
31126;SDS011;17775;57.948;12.514;2023-07-29T08:34:27;2.05;;;1.30;;
31126;SDS011;17775;57.948;12.514;2023-07-29T08:36:53;2.28;;;1.52;;
31126;SDS011;17775;57.948;12.514;2023-07-29T08:39:20;3.30;;;1.42;;
31126;SDS011;17775;57.948;12.514;2023-07-29T08:41:49;3.78;;;1.70;;
31126;SDS011;17775;57.948;12.514;2023-07-29T08:44:23;2.28;;;1.60;;
31126;SDS011;17775;57.948;12.514;2023-07-29T08:46:50;2.80;;;1.58;;
31126;SDS011;17775;57.948;12.514;2023-07-29T08:49:20;2.80;;;1.67;;
31126;SDS011;17775;57.948;12.514;2023-07-29T08:51:49;2.85;;;1.63;;
31126;SDS011;17775;57.948;12.514;2023-07-29T08:54:16;2.45;;;1.55;;
31126;SDS011;17775;57.948;12.514;2023-07-29T08:56:42;2.50;;;1.30;;
31126;SDS011;17775;57.948;12.514;2023-07-29T08:59:09;2.55;;;1.77;;
31126;SDS011;17775;57.948;12.514;2023-07-29T09:01:37;3.15;;;1.77;;
31126;SDS011;17775;57.948;12.514;2023-07-29T09:04:04;2.65;;;1.77;;
31126;SDS011;17775;57.948;12.514;2023-07-29T09:06:31;2.15;;;1.52;;
31126;SDS011;17775;57.948;12.514;2023-07-29T09:08:58;3.03;;;1.88;;
31126;SDS011;17775;57.948;12.514;2023-07-29T09:11:25;3.20;;;1.77;;
31126;SDS011;17775;57.948;12.514;2023-07-29T09:13:52;3.15;;;2.03;;
31126;SDS011;17775;57.948;12.514;2023-07-29T09:16:22;2.50;;;1.80;;
31126;SDS011;17775;57.948;12.514;2023-07-29T09:18:49;4.18;;;1.98;;
31126;SDS011;17775;57.948;12.514;2023-07-29T09:21:17;3.78;;;1.90;;
31126;SDS011;17775;57.948;12.514;2023-07-29T09:23:44;3.42;;;1.83;;
31126;SDS011;17775;57.948;12.514;2023-07-29T09:26:11;6.25;;;2.10;;
31126;SDS011;17775;57.948;12.514;2023-07-29T09:28:38;3.42;;;1.92;;
31126;SDS011;17775;57.948;12.514;2023-07-29T09:31:14;3.22;;;1.60;;
31126;SDS011;17775;57.948;12.514;2023-07-29T09:33:45;3.63;;;2.13;;
31126;SDS011;17775;57.948;12.514;2023-07-29T09:36:11;2.88;;;1.80;;
31126;SDS011;17775;57.948;12.514;2023-07-29T09:38:38;6.85;;;1.90;;
31126;SDS011;17775;57.948;12.514;2023-07-29T09:41:05;3.88;;;2.40;;
31126;SDS011;17775;57.948;12.514;2023-07-29T09:43:32;3.30;;;1.90;;
31126;SDS011;17775;57.948;12.514;2023-07-29T09:45:59;4.45;;;2.20;;
31126;SDS011;17775;57.948;12.514;2023-07-29T09:48:27;3.88;;;2.00;;
31126;SDS011;17775;57.948;12.514;2023-07-29T09:50:55;3.78;;;1.77;;
31126;SDS011;17775;57.948;12.514;2023-07-29T09:53:22;3.58;;;1.90;;
31126;SDS011;17775;57.948;12.514;2023-07-29T09:55:48;4.38;;;2.22;;
31126;SDS011;17775;57.948;12.514;2023-07-29T09:58:19;3.35;;;2.00;;
31126;SDS011;17775;57.948;12.514;2023-07-29T10:00:45;3.80;;;2.22;;
31126;SDS011;17775;57.948;12.514;2023-07-29T10:03:12;4.72;;;2.20;;
31126;SDS011;17775;57.948;12.514;2023-07-29T10:05:40;4.53;;;2.42;;
31126;SDS011;17775;57.948;12.514;2023-07-29T10:08:07;3.58;;;2.40;;
31126;SDS011;17775;57.948;12.514;2023-07-29T10:10:33;3.38;;;2.00;;
31126;SDS011;17775;57.948;12.514;2023-07-29T10:13:00;4.13;;;2.00;;
31126;SDS011;17775;57.948;12.514;2023-07-29T10:15:31;5.88;;;2.38;;
31126;SDS011;17775;57.948;12.514;2023-07-29T10:17:58;3.15;;;2.13;;
31126;SDS011;17775;57.948;12.514;2023-07-29T10:20:25;6.43;;;2.10;;
31126;SDS011;17775;57.948;12.514;2023-07-29T10:22:52;3.50;;;2.20;;
31126;SDS011;17775;57.948;12.514;2023-07-29T10:25:22;4.43;;;2.22;;
31126;SDS011;17775;57.948;12.514;2023-07-29T10:27:49;4.07;;;2.42;;
31126;SDS011;17775;57.948;12.514;2023-07-29T10:30:18;4.82;;;2.40;;
31126;SDS011;17775;57.948;12.514;2023-07-29T10:32:45;3.75;;;1.90;;
31126;SDS011;17775;57.948;12.514;2023-07-29T10:35:12;5.10;;;2.17;;
31126;SDS011;17775;57.948;12.514;2023-07-29T10:37:39;3.55;;;1.95;;
31126;SDS011;17775;57.948;12.514;2023-07-29T10:40:07;3.83;;;1.70;;
31126;SDS011;17775;57.948;12.514;2023-07-29T10:42:34;3.30;;;1.83;;
31126;SDS011;17775;57.948;12.514;2023-07-29T10:45:16;3.15;;;1.98;;
31126;SDS011;17775;57.948;12.514;2023-07-29T10:47:43;3.30;;;1.92;;
31126;SDS011;17775;57.948;12.514;2023-07-29T10:50:19;3.47;;;1.98;;
31126;SDS011;17775;57.948;12.514;2023-07-29T10:52:49;3.72;;;2.00;;
31126;SDS011;17775;57.948;12.514;2023-07-29T10:55:26;3.33;;;2.05;;
31126;SDS011;17775;57.948;12.514;2023-07-29T10:58:06;2.95;;;2.10;;
31126;SDS011;17775;57.948;12.514;2023-07-29T11:00:34;5.10;;;2.45;;
31126;SDS011;17775;57.948;12.514;2023-07-29T11:03:01;2.83;;;1.92;;
31126;SDS011;17775;57.948;12.514;2023-07-29T11:05:42;4.20;;;2.03;;
31126;SDS011;17775;57.948;12.514;2023-07-29T11:08:42;6.07;;;2.10;;
31126;SDS011;17775;57.948;12.514;2023-07-29T11:11:05;3.40;;;2.05;;
31126;SDS011;17775;57.948;12.514;2023-07-29T11:13:33;3.03;;;1.80;;
31126;SDS011;17775;57.948;12.514;2023-07-29T11:16:00;3.08;;;2.30;;
31126;SDS011;17775;57.948;12.514;2023-07-29T11:18:31;4.60;;;2.50;;
31126;SDS011;17775;57.948;12.514;2023-07-29T11:20:59;2.15;;;1.67;;
31126;SDS011;17775;57.948;12.514;2023-07-29T11:23:29;3.80;;;2.20;;
31126;SDS011;17775;57.948;12.514;2023-07-29T11:25:56;3.38;;;2.33;;
31126;SDS011;17775;57.948;12.514;2023-07-29T11:28:23;2.83;;;1.80;;
31126;SDS011;17775;57.948;12.514;2023-07-29T11:30:50;3.03;;;2.10;;
31126;SDS011;17775;57.948;12.514;2023-07-29T11:33:18;3.10;;;2.15;;
31126;SDS011;17775;57.948;12.514;2023-07-29T11:35:48;3.95;;;1.80;;
31126;SDS011;17775;57.948;12.514;2023-07-29T11:38:16;2.92;;;2.10;;
31126;SDS011;17775;57.948;12.514;2023-07-29T11:40:42;2.70;;;2.13;;
31126;SDS011;17775;57.948;12.514;2023-07-29T11:43:09;2.40;;;1.98;;
31126;SDS011;17775;57.948;12.514;2023-07-29T11:45:43;3.22;;;2.38;;
31126;SDS011;17775;57.948;12.514;2023-07-29T11:48:18;3.85;;;2.28;;
31126;SDS011;17775;57.948;12.514;2023-07-29T11:50:44;2.83;;;1.92;;
31126;SDS011;17775;57.948;12.514;2023-07-29T11:53:11;4.13;;;2.10;;
31126;SDS011;17775;57.948;12.514;2023-07-29T11:55:42;3.78;;;2.00;;
31126;SDS011;17775;57.948;12.514;2023-07-29T11:58:08;2.13;;;1.85;;
31126;SDS011;17775;57.948;12.514;2023-07-29T12:00:36;2.90;;;2.00;;
31126;SDS011;17775;57.948;12.514;2023-07-29T12:03:03;3.05;;;1.83;;
31126;SDS011;17775;57.948;12.514;2023-07-29T12:05:30;3.88;;;2.42;;
31126;SDS011;17775;57.948;12.514;2023-07-29T12:07:57;2.53;;;1.88;;
31126;SDS011;17775;57.948;12.514;2023-07-29T12:10:23;2.60;;;1.92;;
31126;SDS011;17775;57.948;12.514;2023-07-29T12:12:54;3.85;;;2.58;;
31126;SDS011;17775;57.948;12.514;2023-07-29T12:15:28;3.22;;;2.50;;
31126;SDS011;17775;57.948;12.514;2023-07-29T12:17:58;5.13;;;2.00;;
31126;SDS011;17775;57.948;12.514;2023-07-29T12:20:25;3.28;;;2.10;;
31126;SDS011;17775;57.948;12.514;2023-07-29T12:22:58;3.20;;;2.15;;
31126;SDS011;17775;57.948;12.514;2023-07-29T12:25:28;3.10;;;2.30;;
31126;SDS011;17775;57.948;12.514;2023-07-29T12:27:54;3.60;;;2.45;;
31126;SDS011;17775;57.948;12.514;2023-07-29T12:30:21;3.60;;;2.38;;
31126;SDS011;17775;57.948;12.514;2023-07-29T12:32:48;3.72;;;2.45;;
31126;SDS011;17775;57.948;12.514;2023-07-29T12:35:15;3.95;;;2.20;;
31126;SDS011;17775;57.948;12.514;2023-07-29T12:37:41;2.97;;;2.10;;
31126;SDS011;17775;57.948;12.514;2023-07-29T12:40:20;3.45;;;2.47;;
31126;SDS011;17775;57.948;12.514;2023-07-29T12:42:48;4.60;;;2.58;;
31126;SDS011;17775;57.948;12.514;2023-07-29T12:45:15;3.13;;;2.10;;
31126;SDS011;17775;57.948;12.514;2023-07-29T12:47:42;2.85;;;2.03;;
31126;SDS011;17775;57.948;12.514;2023-07-29T12:50:08;5.50;;;2.10;;
31126;SDS011;17775;57.948;12.514;2023-07-29T12:52:35;3.30;;;1.95;;
31126;SDS011;17775;57.948;12.514;2023-07-29T12:55:01;2.67;;;1.85;;
31126;SDS011;17775;57.948;12.514;2023-07-29T12:57:28;2.90;;;1.90;;
31126;SDS011;17775;57.948;12.514;2023-07-29T12:59:54;2.97;;;1.80;;
31126;SDS011;17775;57.948;12.514;2023-07-29T13:02:21;2.35;;;1.80;;
31126;SDS011;17775;57.948;12.514;2023-07-29T13:04:47;2.22;;;1.80;;
31126;SDS011;17775;57.948;12.514;2023-07-29T13:07:14;2.95;;;2.00;;
31126;SDS011;17775;57.948;12.514;2023-07-29T13:09:40;3.60;;;1.80;;
31126;SDS011;17775;57.948;12.514;2023-07-29T13:12:06;2.33;;;1.65;;
31126;SDS011;17775;57.948;12.514;2023-07-29T13:14:34;2.35;;;1.58;;
31126;SDS011;17775;57.948;12.514;2023-07-29T13:17:01;2.60;;;1.73;;
31126;SDS011;17775;57.948;12.514;2023-07-29T13:19:28;2.97;;;1.42;;
31126;SDS011;17775;57.948;12.514;2023-07-29T13:21:54;2.10;;;1.45;;
31126;SDS011;17775;57.948;12.514;2023-07-29T13:24:20;1.88;;;1.42;;
31126;SDS011;17775;57.948;12.514;2023-07-29T13:26:47;1.70;;;1.38;;
31126;SDS011;17775;57.948;12.514;2023-07-29T13:29:13;2.30;;;1.33;;
31126;SDS011;17775;57.948;12.514;2023-07-29T13:31:40;1.77;;;1.20;;
31126;SDS011;17775;57.948;12.514;2023-07-29T13:34:06;2.15;;;1.20;;
31126;SDS011;17775;57.948;12.514;2023-07-29T13:36:33;1.50;;;1.35;;
31126;SDS011;17775;57.948;12.514;2023-07-29T13:39:00;2.13;;;1.40;;
31126;SDS011;17775;57.948;12.514;2023-07-29T13:41:26;1.40;;;1.30;;
31126;SDS011;17775;57.948;12.514;2023-07-29T13:43:53;1.42;;;1.27;;
31126;SDS011;17775;57.948;12.514;2023-07-29T13:46:19;1.50;;;1.20;;
31126;SDS011;17775;57.948;12.514;2023-07-29T13:48:49;1.27;;;1.10;;
31126;SDS011;17775;57.948;12.514;2023-07-29T13:51:16;1.38;;;1.10;;
31126;SDS011;17775;57.948;12.514;2023-07-29T13:53:42;1.38;;;1.27;;
31126;SDS011;17775;57.948;12.514;2023-07-29T13:56:09;1.80;;;1.20;;
31126;SDS011;17775;57.948;12.514;2023-07-29T13:58:36;3.17;;;1.20;;
31126;SDS011;17775;57.948;12.514;2023-07-29T14:01:02;1.08;;;0.98;;
31126;SDS011;17775;57.948;12.514;2023-07-29T14:03:29;1.63;;;1.38;;
31126;SDS011;17775;57.948;12.514;2023-07-29T14:05:55;1.30;;;1.10;;
31126;SDS011;17775;57.948;12.514;2023-07-29T14:08:22;1.70;;;1.30;;
31126;SDS011;17775;57.948;12.514;2023-07-29T14:10:52;1.10;;;1.00;;
31126;SDS011;17775;57.948;12.514;2023-07-29T14:13:18;1.63;;;1.17;;
31126;SDS011;17775;57.948;12.514;2023-07-29T14:15:45;1.52;;;1.30;;
31126;SDS011;17775;57.948;12.514;2023-07-29T14:18:11;1.50;;;1.17;;
31126;SDS011;17775;57.948;12.514;2023-07-29T14:20:38;1.88;;;1.42;;
31126;SDS011;17775;57.948;12.514;2023-07-29T14:23:04;3.75;;;1.23;;
31126;SDS011;17775;57.948;12.514;2023-07-29T14:25:31;1.58;;;1.30;;
31126;SDS011;17775;57.948;12.514;2023-07-29T14:27:57;1.10;;;1.00;;
31126;SDS011;17775;57.948;12.514;2023-07-29T14:30:24;2.25;;;1.48;;
31126;SDS011;17775;57.948;12.514;2023-07-29T14:32:50;0.98;;;0.82;;
31126;SDS011;17775;57.948;12.514;2023-07-29T14:35:17;2.03;;;1.20;;
31126;SDS011;17775;57.948;12.514;2023-07-29T14:37:43;1.65;;;1.23;;
31126;SDS011;17775;57.948;12.514;2023-07-29T14:40:10;2.05;;;1.10;;
31126;SDS011;17775;57.948;12.514;2023-07-29T14:42:36;2.30;;;1.17;;